Ar Rutbah, Iraq
Current Conditions -  °F | °C
As of 5:55 AM on Wednesday 26 Nov 2014 (Local Time) from KQAJ Reporting Station
Haze Haze  
Wind Chill: 53°   Ceiling: 200
Heat Index: 53°   Visibility: 1.2mi
Dew Point: 52°   Wind: 8mph
Humidity: 95%   Direction: 290°WNW
Pressure: 30.03"   Gusts: NA
Location:  33.04°N, 40.3°E
Report Text: KQAJ 260255Z 29007KT 2000 BR BKN002 OVC004 12/11 A3003 RMK SLP170 T01170109 53026
Loading
Personal Weather Stations






























Interactive Weather Map New forecast layout! Learn more

10-Day Weather Forecast

Advertisements
Track Severe Weather on mobile